Time;durP1;ratioP1;P1;durP2;ratioP2;P2;SDS_P1;SDS_P2;PMS_P1;PMS_P2;Temp;Humidity;BMP_temperature;BMP_pressure;BME280_temperature;BME280_humidity;BME280_pressure;Samples;Min_cycle;Max_cycle;Signal;HPM_P1;HPM_P2
2022/10/03 00:00:08;;;;;;;14.77;4.67;;;;;;;-150.27;100.00;61272.81;5214756;28;20022;-79
2022/10/03 00:02:59;;;;;;;15.10;4.00;;;;;;;-150.27;100.00;61272.81;5210739;28;20076;-77
2022/10/03 00:06:02;;;;;;;14.83;4.40;;;;;;;-150.27;100.00;61272.81;5212905;28;20481;-78
2022/10/03 00:08:50;;;;;;;11.43;4.33;;;;;;;-150.27;100.00;61272.81;5213303;28;20460;-77
2022/10/03 00:11:37;;;;;;;14.37;4.37;;;;;;;-150.27;100.00;61272.81;5214287;28;20026;-76
2022/10/03 00:14:24;;;;;;;14.77;4.80;;;;;;;-150.27;100.00;61272.81;5215096;28;20025;-78
2022/10/03 00:17:11;;;;;;;11.53;5.03;;;;;;;-150.27;100.00;61272.81;5216756;28;20117;-78
2022/10/03 00:19:54;;;;;;;11.50;4.20;;;;;;;-150.27;100.00;61272.81;5213779;28;20105;-78
2022/10/03 00:22:56;;;;;;;12.13;3.67;;;;;;;-150.27;100.00;61272.81;5214698;28;20030;-78
2022/10/03 00:25:54;;;;;;;20.00;4.60;;;;;;;-150.27;100.00;61272.81;5213315;28;20030;-77
2022/10/03 00:28:31;;;;;;;13.13;4.30;;;;;;;-150.27;100.00;61272.81;5211988;28;20473;-77
2022/10/03 00:31:16;;;;;;;18.07;4.60;;;;;;;-150.27;100.00;61272.81;5213953;28;20369;-76
2022/10/03 00:34:00;;;;;;;14.18;4.65;;;;;;;-150.27;100.00;61272.81;5214171;28;20034;-78
2022/10/03 00:37:04;;;;;;;15.40;5.33;;;;;;;-150.27;100.00;61272.81;5213604;28;20030;-78
2022/10/03 00:39:45;;;;;;;12.77;4.33;;;;;;;-150.27;100.00;61272.81;5212305;28;20113;-78
2022/10/03 00:43:10;;;;;;;15.23;4.73;;;;;;;-150.27;100.00;61272.81;5214142;28;20030;-78
2022/10/03 00:46:00;;;;;;;11.50;4.03;;;;;;;-150.27;100.00;61272.81;5140937;28;20474;-76
2022/10/03 00:48:56;;;;;;;22.30;5.13;;;;;;;-150.27;100.00;61272.81;5200956;28;20099;-77
2022/10/03 00:52:00;;;;;;;14.00;3.87;;;;;;;-150.27;100.00;61272.81;5213498;28;20728;-78
2022/10/03 00:54:44;;;;;;;12.93;4.23;;;;;;;-150.27;100.00;61272.81;5211100;28;20040;-76
2022/10/03 00:57:53;;;;;;;10.20;3.77;;;;;;;-150.27;100.00;61272.81;5213512;28;20036;-78
2022/10/03 01:00:30;;;;;;;12.90;4.23;;;;;;;-150.27;100.00;61272.81;5212891;28;20125;-77
2022/10/03 01:03:32;;;;;;;12.73;4.87;;;;;;;-150.27;100.00;61272.81;5213657;28;20038;-78
2022/10/03 01:06:09;;;;;;;13.13;4.43;;;;;;;-150.27;100.00;61272.81;5213675;28;20057;-77
2022/10/03 01:08:48;;;;;;;15.67;5.43;;;;;;;-150.27;100.00;61272.81;5212053;28;20129;-77
2022/10/03 01:11:52;;;;;;;13.37;4.50;;;;;;;-150.27;100.00;61272.81;5213589;28;20089;-77
2022/10/03 01:14:46;;;;;;;10.33;3.70;;;;;;;-150.27;100.00;61272.81;5211884;28;20112;-77
2022/10/03 01:17:49;;;;;;;10.53;3.67;;;;;;;-150.27;100.00;61272.81;5212933;28;20541;-77
2022/10/03 01:20:55;;;;;;;11.73;4.53;;;;;;;-150.27;100.00;61272.81;5212672;28;20025;-77
2022/10/03 01:24:06;;;;;;;13.80;4.30;;;;;;;-150.27;100.00;61272.81;5211615;28;20089;-78
2022/10/03 01:26:53;;;;;;;12.57;4.17;;;;;;;-150.27;100.00;61272.81;5211576;28;20040;-77
2022/10/03 01:32:46;;;;;;;12.83;3.83;;;;;;;-150.27;100.00;61272.81;5212159;28;20434;-77
2022/10/03 01:35:46;;;;;;;10.57;3.85;;;;;;;-150.27;100.00;61272.81;5212860;28;20033;-76
2022/10/03 01:38:28;;;;;;;12.90;5.23;;;;;;;-150.27;100.00;61272.81;5200540;28;20030;-78
2022/10/03 01:41:09;;;;;;;10.97;4.10;;;;;;;-150.27;100.00;61272.81;5212924;28;20113;-78
2022/10/03 01:43:59;;;;;;;12.00;4.23;;;;;;;-150.27;100.00;61272.81;5212902;28;20026;-76
2022/10/03 01:46:38;;;;;;;11.87;4.07;;;;;;;-150.27;100.00;61272.81;5198400;28;20080;-78
2022/10/03 01:49:20;;;;;;;9.83;3.47;;;;;;;-150.27;100.00;61272.81;5213053;28;20034;-76
2022/10/03 01:52:10;;;;;;;9.17;4.27;;;;;;;-150.27;100.00;61272.81;5213555;28;20481;-78
2022/10/03 01:55:09;;;;;;;9.17;3.93;;;;;;;-150.27;100.00;61272.81;5215747;28;20117;-77
2022/10/03 01:58:11;;;;;;;14.97;4.47;;;;;;;-150.27;100.00;61272.81;5212339;28;20044;-78
2022/10/03 02:00:46;;;;;;;18.50;4.60;;;;;;;-150.27;100.00;61272.81;5211254;28;20068;-79
2022/10/03 02:03:30;;;;;;;9.65;4.47;;;;;;;-150.27;100.00;61272.81;5211471;28;20018;-79
2022/10/03 02:06:13;;;;;;;11.82;3.95;;;;;;;-150.27;100.00;61272.81;5212361;28;20056;-78
2022/10/03 02:08:59;;;;;;;19.50;5.03;;;;;;;-150.27;100.00;61272.81;5211710;28;20473;-78
2022/10/03 02:11:55;;;;;;;13.40;4.63;;;;;;;-150.27;100.00;61272.81;5212995;28;20018;-78
2022/10/03 02:14:40;;;;;;;14.60;4.70;;;;;;;-150.27;100.00;61272.81;5212479;28;20033;-77
2022/10/03 02:17:41;;;;;;;12.88;4.43;;;;;;;-150.27;100.00;61272.81;5212964;28;20068;-78
2022/10/03 02:20:30;;;;;;;10.73;4.23;;;;;;;-150.27;100.00;61272.81;5211496;28;20044;-78
2022/10/03 02:23:22;;;;;;;19.87;4.77;;;;;;;-150.27;100.00;61272.81;5212196;28;20021;-79
2022/10/03 02:26:19;;;;;;;12.30;5.27;;;;;;;-150.27;100.00;61272.81;5212546;28;20058;-78
2022/10/03 02:29:20;;;;;;;10.77;4.40;;;;;;;-150.27;100.00;61272.81;5212535;28;20052;-77
2022/10/03 02:32:35;;;;;;;14.73;4.53;;;;;;;-150.27;100.00;61272.81;5211163;28;20501;-78
2022/10/03 02:35:32;;;;;;;11.23;4.77;;;;;;;-150.27;100.00;61272.81;5211306;28;20127;-78
2022/10/03 02:38:22;;;;;;;13.10;5.03;;;;;;;-150.27;100.00;61272.81;5210049;28;20026;-78
2022/10/03 02:41:07;;;;;;;12.53;4.53;;;;;;;-150.27;100.00;61272.81;5212304;28;20022;-77
2022/10/03 02:43:54;;;;;;;14.50;4.83;;;;;;;-150.27;100.00;61272.81;5210874;28;20025;-79
2022/10/03 02:47:04;;;;;;;13.30;4.20;;;;;;;-150.27;100.00;61272.81;5197069;28;20030;-79
2022/10/03 02:49:57;;;;;;;16.67;5.43;;;;;;;-150.27;100.00;61272.81;5212232;28;20033;-76
2022/10/03 02:52:47;;;;;;;12.60;4.73;;;;;;;-150.27;100.00;61272.81;5215948;28;20105;-77
2022/10/03 02:55:46;;;;;;;12.53;4.93;;;;;;;-150.27;100.00;61272.81;5214201;28;20034;-78
2022/10/03 02:58:30;;;;;;;15.27;5.93;;;;;;;-150.27;100.00;61272.81;5215568;28;20487;-80
2022/10/03 03:01:46;;;;;;;13.13;4.60;;;;;;;-150.27;100.00;61272.81;5215647;28;20030;-78
2022/10/03 03:04:55;;;;;;;13.63;5.03;;;;;;;-150.27;100.00;61272.81;5200665;28;20046;-77
2022/10/03 03:07:26;;;;;;;14.53;5.47;;;;;;;-150.27;100.00;61272.81;5208508;28;20045;-78
2022/10/03 03:10:20;;;;;;;10.73;4.63;;;;;;;-150.27;100.00;61272.81;5213640;28;20036;-79
2022/10/03 03:13:28;;;;;;;10.30;4.03;;;;;;;-150.27;100.00;61272.81;5215783;28;20080;-79
2022/10/03 03:16:35;;;;;;;8.17;4.47;;;;;;;-150.27;100.00;61272.81;5214269;28;20034;-79
2022/10/03 03:19:41;;;;;;;9.87;4.43;;;;;;;-150.27;100.00;61272.81;5215851;28;20068;-77
2022/10/03 03:22:50;;;;;;;13.23;4.63;;;;;;;-150.27;100.00;61272.81;5200833;28;20046;-79
2022/10/03 03:25:36;;;;;;;8.47;4.20;;;;;;;-150.27;100.00;61272.81;5218794;28;20026;-79
2022/10/03 03:28:40;;;;;;;16.53;5.00;;;;;;;-150.27;100.00;61272.81;5215172;28;20037;-79
2022/10/03 03:31:22;;;;;;;12.50;5.20;;;;;;;-150.27;100.00;61272.81;5215358;28;20473;-78
2022/10/03 03:34:17;;;;;;;10.03;5.30;;;;;;;-150.27;100.00;61272.81;5215366;28;20096;-79
2022/10/03 03:37:05;;;;;;;13.17;5.37;;;;;;;-150.27;100.00;61272.81;5215535;28;20817;-79
2022/10/03 03:39:59;;;;;;;9.27;4.57;;;;;;;-150.27;100.00;61272.81;5214004;28;20656;-79
2022/10/03 03:42:59;;;;;;;13.30;5.33;;;;;;;-150.27;100.00;61272.81;5214304;28;20026;-76
2022/10/03 03:45:49;;;;;;;8.57;4.20;;;;;;;-150.27;100.00;61272.81;5213661;28;20108;-79
2022/10/03 03:48:47;;;;;;;11.33;4.43;;;;;;;-150.27;100.00;61272.81;5214738;28;20458;-78
2022/10/03 03:51:32;;;;;;;15.53;5.43;;;;;;;-150.27;100.00;61272.81;5211199;28;20030;-77
2022/10/03 03:54:27;;;;;;;13.47;4.33;;;;;;;-150.27;100.00;61272.81;5214050;28;20030;-78
2022/10/03 03:57:17;;;;;;;11.50;4.83;;;;;;;-150.27;100.00;61272.81;5214273;28;20049;-77
2022/10/03 04:00:20;;;;;;;12.10;4.47;;;;;;;-150.27;100.00;61272.81;5215115;28;20044;-77
2022/10/03 04:03:33;;;;;;;8.10;4.17;;;;;;;-150.27;100.00;61272.81;5211757;28;20556;-77
2022/10/03 04:06:30;;;;;;;9.90;4.63;;;;;;;-150.27;100.00;61272.81;5212238;28;20526;-78
2022/10/03 04:09:20;;;;;;;10.47;5.37;;;;;;;-150.27;100.00;61272.81;5213920;28;20033;-78
2022/10/03 04:12:08;;;;;;;10.10;5.13;;;;;;;-150.27;100.00;61272.81;5213084;28;20037;-76
2022/10/03 04:15:02;;;;;;;12.57;5.30;;;;;;;-150.27;100.00;61272.81;5217926;28;20029;-76
2022/10/03 04:20:59;;;;;;;5.93;3.97;;;;;;;-150.27;100.00;61272.81;5209689;28;20029;-78
2022/10/03 04:23:42;;;;;;;12.57;4.63;;;;;;;-150.27;100.00;61272.81;5212350;28;20030;-79
2022/10/03 04:26:28;;;;;;;10.37;4.33;;;;;;;-150.27;100.00;61272.81;5214635;28;20109;-78
2022/10/03 04:29:18;;;;;;;12.57;5.20;;;;;;;-150.27;100.00;61272.81;5216551;28;20097;-76
2022/10/03 04:32:10;;;;;;;8.07;4.20;;;;;;;-150.27;100.00;61272.81;5213495;28;20400;-78
2022/10/03 04:35:19;;;;;;;12.77;4.37;;;;;;;-150.27;100.00;61272.81;5207490;28;20052;-77
2022/10/03 04:37:56;;;;;;;13.13;5.37;;;;;;;-150.27;100.00;61272.81;5212967;28;20428;-78
2022/10/03 04:40:36;;;;;;;9.80;5.10;;;;;;;-150.27;100.00;61272.81;5213607;28;20473;-77
2022/10/03 04:43:14;;;;;;;10.87;4.60;;;;;;;-150.27;100.00;61272.81;5214652;28;20029;-76
2022/10/03 04:46:17;;;;;;;12.73;5.47;;;;;;;-150.27;100.00;61272.81;5208555;28;20488;-74
2022/10/03 04:49:15;;;;;;;16.23;5.40;;;;;;;-150.27;100.00;61272.81;5213921;28;20030;-74
2022/10/03 04:51:56;;;;;;;11.20;4.40;;;;;;;-150.27;100.00;61272.81;5215560;28;20087;-76
2022/10/03 04:54:43;;;;;;;8.13;4.60;;;;;;;-150.27;100.00;61272.81;5216135;28;20521;-76
2022/10/03 04:57:23;;;;;;;8.83;4.87;;;;;;;-150.27;100.00;61272.81;5216181;28;20041;-79
2022/10/03 05:00:20;;;;;;;12.17;5.57;;;;;;;-150.27;100.00;61272.81;5216688;28;20022;-79
2022/10/03 05:03:16;;;;;;;13.33;5.63;;;;;;;-150.27;100.00;61272.81;5216352;28;20648;-77
2022/10/03 05:05:59;;;;;;;12.70;4.70;;;;;;;-150.27;100.00;61272.81;5212726;28;20040;-78
2022/10/03 05:08:36;;;;;;;12.70;4.97;;;;;;;-150.27;100.00;61272.81;5212427;28;20105;-76
2022/10/03 05:11:38;;;;;;;7.27;4.70;;;;;;;-150.27;100.00;61272.81;5208110;28;20108;-77
2022/10/03 05:14:24;;;;;;;12.60;5.00;;;;;;;-150.27;100.00;61272.81;5212265;28;20041;-76
2022/10/03 05:17:13;;;;;;;9.93;4.90;;;;;;;-150.27;100.00;61272.81;5213071;28;20615;-76
2022/10/03 05:19:59;;;;;;;10.20;4.13;;;;;;;-150.27;100.00;61272.81;5210227;28;20030;-76
2022/10/03 05:22:39;;;;;;;12.07;4.43;;;;;;;-150.27;100.00;61272.81;5208821;28;20095;-77
2022/10/03 05:25:21;;;;;;;13.23;4.70;;;;;;;-150.27;100.00;61272.81;5210881;28;20022;-78
2022/10/03 05:28:21;;;;;;;11.60;4.27;;;;;;;-150.27;100.00;61272.81;5211372;28;20069;-78
2022/10/03 05:31:14;;;;;;;10.17;3.77;;;;;;;-150.27;100.00;61272.81;5212928;28;20045;-77
2022/10/03 05:33:59;;;;;;;13.23;5.33;;;;;;;-150.27;100.00;61272.81;5212573;28;20029;-78
2022/10/03 05:36:59;;;;;;;9.05;5.00;;;;;;;-150.27;100.00;61272.81;5211531;28;20026;-78
2022/10/03 05:39:54;;;;;;;9.77;4.20;;;;;;;-150.27;100.00;61272.81;5209876;28;20030;-78
2022/10/03 05:42:47;;;;;;;20.58;5.55;;;;;;;-150.27;100.00;61272.81;5212180;28;20485;-78
2022/10/03 05:45:29;;;;;;;16.20;4.80;;;;;;;-150.27;100.00;61272.81;5212203;28;20026;-77
2022/10/03 05:48:31;;;;;;;13.10;5.17;;;;;;;-150.27;100.00;61272.81;5212728;28;20595;-78
2022/10/03 05:51:16;;;;;;;9.20;5.13;;;;;;;-150.27;100.00;61272.81;5208844;28;20072;-78
2022/10/03 05:54:11;;;;;;;11.95;4.97;;;;;;;-150.27;100.00;61272.81;5211353;28;20037;-78
2022/10/03 05:57:00;;;;;;;;;;;;;;;-150.27;100.00;61272.81;5206706;28;20492;-79
2022/10/03 05:59:50;;;;;;;13.07;4.50;;;;;;;-150.27;100.00;61272.81;5208235;28;19992;-77
2022/10/03 06:02:37;;;;;;;10.07;4.93;;;;;;;-150.27;100.00;61272.81;5210035;28;20057;-76
2022/10/03 06:05:25;;;;;;;12.73;5.53;;;;;;;-150.27;100.00;61272.81;5211353;28;20045;-78
2022/10/03 06:08:21;;;;;;;13.97;5.03;;;;;;;-150.27;100.00;61272.81;5210388;28;20045;-77
2022/10/03 06:11:27;;;;;;;10.20;5.73;;;;;;;-150.27;100.00;61272.81;5212095;28;20030;-77
2022/10/03 06:14:22;;;;;;;9.67;4.67;;;;;;;-150.27;100.00;61272.81;5209911;28;20029;-78
2022/10/03 06:17:12;;;;;;;12.57;5.43;;;;;;;-150.27;100.00;61272.81;5208832;28;20026;-78
2022/10/03 06:20:14;;;;;;;15.13;4.90;;;;;;;-150.27;100.00;61272.81;5207318;28;20061;-78
2022/10/03 06:23:21;;;;;;;13.87;4.90;;;;;;;-150.27;100.00;61272.81;5210543;28;20100;-75
2022/10/03 06:26:11;;;;;;;10.43;5.20;;;;;;;-150.27;100.00;61272.81;5212996;28;20117;-75
2022/10/03 06:29:01;;;;;;;9.83;6.10;;;;;;;-150.27;100.00;61272.81;5228642;28;20018;-75
2022/10/03 06:32:10;;;;;;;15.63;5.77;;;;;;;-150.27;100.00;61272.81;5213513;28;20029;-76
2022/10/03 06:35:03;;;;;;;13.70;5.87;;;;;;;-150.27;100.00;61272.81;5213803;28;20034;-75
2022/10/03 06:37:59;;;;;;;13.10;6.30;;;;;;;-150.27;100.00;61272.81;5212196;28;20036;-75
2022/10/03 06:41:01;;;;;;;15.10;5.90;;;;;;;-150.27;100.00;61272.81;5210134;28;20026;-75
2022/10/03 06:43:35;;;;;;;12.23;6.40;;;;;;;-150.27;100.00;61272.81;5209588;28;20117;-75
2022/10/03 06:47:04;;;;;;;11.98;6.50;;;;;;;-150.27;100.00;61272.81;5201402;28;20026;-76
2022/10/03 06:50:12;;;;;;;11.20;6.33;;;;;;;-150.27;100.00;61272.81;5169757;28;20039;-73
2022/10/03 06:53:02;;;;;;;12.97;6.23;;;;;;;-150.27;100.00;61272.81;5168755;28;20684;-72
2022/10/03 06:55:51;;;;;;;11.57;6.23;;;;;;;-150.27;100.00;61272.81;5207352;28;20124;-72
2022/10/03 06:58:59;;;;;;;16.63;6.90;;;;;;;-150.27;100.00;61272.81;5211609;28;20524;-72
2022/10/03 07:02:15;;;;;;;11.27;6.33;;;;;;;-150.27;100.00;61272.81;5227963;28;20030;-74
2022/10/03 07:04:54;;;;;;;12.90;6.55;;;;;;;-150.27;100.00;61272.81;5210524;28;20399;-72
2022/10/03 07:07:42;;;;;;;14.03;7.63;;;;;;;-150.27;100.00;61272.81;5212399;28;20119;-74
2022/10/03 07:10:33;;;;;;;13.77;6.27;;;;;;;-150.27;100.00;61272.81;5212991;28;20588;-72
2022/10/03 07:13:43;;;;;;;15.87;6.50;;;;;;;-150.27;100.00;61272.81;5213972;28;20096;-75
2022/10/03 07:16:50;;;;;;;17.80;7.23;;;;;;;-150.27;100.00;61272.81;5211302;28;20034;-75
2022/10/03 07:19:27;;;;;;;11.97;7.40;;;;;;;-150.27;100.00;61272.81;5205488;28;20069;-73
2022/10/03 07:22:20;;;;;;;13.27;7.50;;;;;;;-150.27;100.00;61272.81;5215022;28;20020;-76
2022/10/03 07:25:07;;;;;;;20.37;7.77;;;;;;;-150.27;100.00;61272.81;5208661;28;20037;-75
2022/10/03 07:28:03;;;;;;;20.83;7.63;;;;;;;-150.27;100.00;61272.81;5212279;28;20456;-75
2022/10/03 07:30:50;;;;;;;14.93;6.47;;;;;;;-150.27;100.00;61272.81;5209929;28;20091;-73
2022/10/03 07:33:50;;;;;;;17.00;7.47;;;;;;;-150.27;100.00;61272.81;5212490;28;20187;-74
2022/10/03 07:39:28;;;;;;;13.73;6.70;;;;;;;-150.27;100.00;61272.81;5212730;28;20116;-73
2022/10/03 07:42:26;;;;;;;15.50;7.07;;;;;;;-150.27;100.00;61272.81;5218349;28;20385;-73
2022/10/03 07:45:17;;;;;;;13.60;8.13;;;;;;;-150.27;100.00;61272.81;5209729;28;20048;-73
2022/10/03 07:48:12;;;;;;;17.00;7.47;;;;;;;-150.27;100.00;61272.81;5211916;28;20061;-73
2022/10/03 07:51:09;;;;;;;17.50;8.30;;;;;;;-150.27;100.00;61272.81;5213136;28;20030;-73
2022/10/03 07:54:14;;;;;;;15.13;7.10;;;;;;;-150.27;100.00;61272.81;5210904;28;20045;-73
2022/10/03 07:57:14;;;;;;;15.50;7.93;;;;;;;-150.27;100.00;61272.81;5209938;28;20124;-70
2022/10/03 07:59:59;;;;;;;18.83;7.07;;;;;;;-150.27;100.00;61272.81;5207786;28;20057;-72
2022/10/03 08:03:01;;;;;;;14.30;5.33;;;;;;;-150.27;100.00;61272.81;5206938;28;20025;-73
2022/10/03 08:06:00;;;;;;;13.20;5.57;;;;;;;-150.27;100.00;61272.81;5210337;28;20034;-73
2022/10/03 08:08:52;;;;;;;11.50;5.30;;;;;;;-150.27;100.00;61272.81;5213488;28;20104;-76
2022/10/03 08:11:42;;;;;;;11.10;5.40;;;;;;;-150.27;100.00;61272.81;5213202;28;20092;-72
2022/10/03 08:14:37;;;;;;;12.93;5.47;;;;;;;-150.27;100.00;61272.81;5213150;28;20088;-73
2022/10/03 08:17:30;;;;;;;12.10;5.20;;;;;;;-150.27;100.00;61272.81;5209351;28;20036;-73
2022/10/03 08:20:17;;;;;;;8.37;3.83;;;;;;;-150.27;100.00;61272.81;5211488;28;20034;-73
2022/10/03 08:23:01;;;;;;;10.70;4.00;;;;;;;-150.27;100.00;61272.81;5210903;28;20038;-72
2022/10/03 08:25:52;;;;;;;11.20;4.20;;;;;;;-150.27;100.00;61272.81;5208492;28;20041;-72
2022/10/03 08:28:47;;;;;;;17.13;6.37;;;;;;;-150.27;100.00;61272.81;5213156;28;20030;-72
2022/10/03 08:31:47;;;;;;;7.82;3.72;;;;;;;-150.27;100.00;61272.81;5212695;28;20101;-73
2022/10/03 08:34:48;;;;;;;11.00;5.13;;;;;;;-150.27;100.00;61272.81;5211004;28;20076;-71
2022/10/03 08:37:49;;;;;;;8.93;4.80;;;;;;;-150.27;100.00;61272.81;5206461;28;20037;-72
2022/10/03 08:40:23;;;;;;;8.25;3.70;;;;;;;-150.27;100.00;61272.81;5212765;28;20024;-72
2022/10/03 08:43:13;;;;;;;;;;;;;;;-150.27;100.00;61272.81;5212091;28;20030;-73
2022/10/03 08:46:22;;;;;;;11.32;3.35;;;;;;;-150.27;100.00;61272.81;5208433;28;19945;-73
2022/10/03 08:49:12;;;;;;;9.18;3.55;;;;;;;-150.27;100.00;61272.81;5209967;28;20030;-74
2022/10/03 08:52:06;;;;;;;9.35;3.67;;;;;;;-150.27;100.00;61272.81;5211529;28;20037;-72
2022/10/03 08:54:52;;;;;;;11.80;4.20;;;;;;;-150.27;100.00;61272.81;5208063;28;20034;-72
2022/10/03 08:57:44;;;;;;;9.60;3.28;;;;;;;-150.27;100.00;61272.81;5211580;28;20040;-72
2022/10/03 09:00:18;;;;;;;10.73;4.03;;;;;;;-150.27;100.00;61272.81;5209034;28;20033;-72
2022/10/03 09:02:59;;;;;;;10.30;3.63;;;;;;;-150.27;100.00;61272.81;5207740;28;20034;-73
2022/10/03 09:06:07;;;;;;;7.32;2.97;;;;;;;-150.27;100.00;61272.81;5209880;28;20116;-73
2022/10/03 09:09:03;;;;;;;8.00;2.80;;;;;;;-150.27;100.00;61272.81;5203671;28;20026;-73
2022/10/03 09:12:03;;;;;;;11.70;3.53;;;;;;;-150.27;100.00;61272.81;5211999;28;20026;-72
2022/10/03 09:15:02;;;;;;;11.68;3.53;;;;;;;-150.27;100.00;61272.81;5206628;28;20040;-72
2022/10/03 09:18:24;;;;;;;8.73;2.60;;;;;;;-150.27;100.00;61272.81;5210326;28;20033;-72
2022/10/03 09:21:32;;;;;;;7.40;2.67;;;;;;;-150.27;100.00;61272.81;5200369;28;20568;-71
2022/10/03 09:24:21;;;;;;;9.20;3.33;;;;;;;-150.27;100.00;61272.81;5210246;28;20030;-73
2022/10/03 09:27:24;;;;;;;7.63;2.83;;;;;;;-150.27;100.00;61272.81;5209078;28;20060;-72
2022/10/03 09:30:28;;;;;;;9.13;2.97;;;;;;;-150.27;100.00;61272.81;5197889;28;20030;-73
2022/10/03 09:33:22;;;;;;;7.13;2.05;;;;;;;-150.27;100.00;61272.81;5212328;28;20432;-73
2022/10/03 09:36:17;;;;;;;7.53;2.72;;;;;;;-150.27;100.00;61272.81;5209113;28;20022;-72
2022/10/03 09:39:01;;;;;;;5.10;2.00;;;;;;;-150.27;100.00;61272.81;5217585;28;20101;-73
2022/10/03 09:41:38;;;;;;;7.68;2.28;;;;;;;-150.27;100.00;61272.81;5211681;28;20032;-73
2022/10/03 09:44:22;;;;;;;8.27;2.25;;;;;;;-150.27;100.00;61272.81;5209577;28;20023;-71
2022/10/03 09:47:27;;;;;;;5.90;1.50;;;;;;;-150.27;100.00;61272.81;5207887;28;20099;-72
2022/10/03 09:50:27;;;;;;;8.95;2.83;;;;;;;-150.27;100.00;61272.81;5209603;28;20305;-72
2022/10/03 09:53:17;;;;;;;7.05;3.00;;;;;;;-150.27;100.00;61272.81;5206401;28;20172;-71
2022/10/03 09:56:18;;;;;;;10.15;2.38;;;;;;;-150.27;100.00;61272.81;5206591;28;20648;-73
2022/10/03 09:59:29;;;;;;;7.05;2.00;;;;;;;-150.27;100.00;61272.81;5222984;28;20037;-73
2022/10/03 10:02:22;;;;;;;10.80;2.70;;;;;;;-150.27;100.00;61272.81;5210490;28;20065;-73
2022/10/03 10:05:18;;;;;;;8.95;3.30;;;;;;;-150.27;100.00;61272.81;5212678;28;20481;-73
2022/10/03 10:08:03;;;;;;;8.60;2.45;;;;;;;-150.27;100.00;61272.81;5212839;28;20037;-72
2022/10/03 10:10:46;;;;;;;7.75;2.28;;;;;;;-150.27;100.00;61272.81;5214229;28;20021;-73
2022/10/03 10:14:06;;;;;;;6.38;2.35;;;;;;;-150.27;100.00;61272.81;5215049;28;20037;-74
2022/10/03 10:16:37;;;;;;;7.40;2.42;;;;;;;-150.27;100.00;61272.81;5210667;28;20045;-71
2022/10/03 10:19:21;;;;;;;9.48;2.38;;;;;;;-150.27;100.00;61272.81;5214447;28;20022;-72
2022/10/03 10:21:55;;;;;;;6.40;2.65;;;;;;;-150.27;100.00;61272.81;5206932;28;20105;-72
2022/10/03 10:25:00;;;;;;;8.05;2.30;;;;;;;-150.27;100.00;61272.81;5212724;28;20097;-72
2022/10/03 10:27:34;;;;;;;;;;;;;;;-150.27;100.00;61272.81;5212118;28;20028;-72
2022/10/03 10:30:29;;;;;;;10.05;1.90;;;;;;;-150.27;100.00;61272.81;5213266;28;19914;-71
2022/10/03 10:33:32;;;;;;;7.65;2.67;;;;;;;-150.27;100.00;61272.81;5214855;28;20042;-72
2022/10/03 10:36:17;;;;;;;6.38;2.15;;;;;;;-150.27;100.00;61272.81;5213072;28;20021;-72
2022/10/03 10:39:16;;;;;;;8.88;2.33;;;;;;;-150.27;100.00;61272.81;5212353;28;20104;-72
2022/10/03 10:42:16;;;;;;;13.30;2.92;;;;;;;-150.27;100.00;61272.81;5209119;28;20391;-73
2022/10/03 10:45:22;;;;;;;8.50;2.78;;;;;;;-150.27;100.00;61272.81;5212590;28;20042;-72
2022/10/03 10:47:59;;;;;;;;;;;;;;;-150.27;100.00;61272.81;5213839;28;20084;-71
2022/10/03 10:50:51;;;;;;;8.40;1.98;;;;;;;-150.27;100.00;61272.81;5213589;28;20315;-70
2022/10/03 10:53:56;;;;;;;7.78;2.08;;;;;;;-150.27;100.00;61272.81;5211172;28;20024;-70
2022/10/03 10:56:52;;;;;;;8.73;2.28;;;;;;;-150.27;100.00;61272.81;5209734;28;20384;-70
2022/10/03 11:00:14;;;;;;;7.25;1.98;;;;;;;-150.27;100.00;61272.81;5211794;28;20377;-71
2022/10/03 11:03:16;;;;;;;10.48;3.08;;;;;;;-150.27;100.00;61272.81;5195257;28;20061;-71
2022/10/03 11:05:59;;;;;;;5.97;2.42;;;;;;;-150.27;100.00;61272.81;5211923;28;20120;-72
2022/10/03 11:08:43;;;;;;;8.18;2.70;;;;;;;-150.27;100.00;61272.81;5211678;28;20469;-72
2022/10/03 11:11:41;;;;;;;8.03;2.43;;;;;;;-150.27;100.00;61272.81;5214305;28;20444;-71
2022/10/03 11:15:02;;;;;;;11.38;2.50;;;;;;;-150.27;100.00;61272.81;5211934;28;20309;-71
2022/10/03 11:17:48;;;;;;;9.65;1.95;;;;;;;-150.27;100.00;61272.81;5208132;28;20548;-71
2022/10/03 11:20:35;;;;;;;7.72;2.75;;;;;;;-150.27;100.00;61272.81;5212597;28;20022;-71
2022/10/03 11:23:31;;;;;;;6.05;1.67;;;;;;;-150.27;100.00;61272.81;5213578;28;20125;-72
2022/10/03 11:26:32;;;;;;;8.05;2.55;;;;;;;-150.27;100.00;61272.81;5209607;28;20057;-71
2022/10/03 11:29:56;;;;;;;10.18;2.55;;;;;;;-150.27;100.00;61272.81;5212577;28;20123;-71
2022/10/03 11:32:42;;;;;;;9.27;2.55;;;;;;;-150.27;100.00;61272.81;5133696;28;20046;-71
2022/10/03 11:35:51;;;;;;;7.88;1.83;;;;;;;-150.27;100.00;61272.81;5210975;28;20050;-70
2022/10/03 11:38:39;;;;;;;7.30;2.33;;;;;;;-150.27;100.00;61272.81;5208665;28;20561;-70
2022/10/03 11:41:24;;;;;;;9.10;1.75;;;;;;;-150.27;100.00;61272.81;5213249;28;20049;-71
2022/10/03 11:44:14;;;;;;;6.15;1.70;;;;;;;-150.27;100.00;61272.81;5212632;28;20725;-71
2022/10/03 11:46:45;;;;;;;5.57;2.20;;;;;;;-150.27;100.00;61272.81;5211132;28;20083;-71
2022/10/03 11:49:35;;;;;;;3.88;1.30;;;;;;;-150.27;100.00;61272.81;5211758;28;20034;-72
2022/10/03 11:52:17;;;;;;;7.18;2.22;;;;;;;-150.27;100.00;61272.81;5211593;28;20034;-72
2022/10/03 11:55:00;;;;;;;10.32;1.92;;;;;;;-150.27;100.00;61272.81;5212089;28;20040;-71
2022/10/03 11:57:38;;;;;;;3.97;1.73;;;;;;;-150.27;100.00;61272.81;5213133;28;20595;-72
2022/10/03 12:00:16;;;;;;;8.02;1.48;;;;;;;-150.27;100.00;61272.81;5209397;28;20033;-72
2022/10/03 12:02:47;;;;;;;6.30;1.75;;;;;;;-150.27;100.00;61272.81;5218006;28;20487;-70
2022/10/03 12:05:41;;;;;;;7.65;1.90;;;;;;;-150.27;100.00;61272.81;5213274;28;20061;-72
2022/10/03 12:11:52;;;;;;;5.50;2.13;;;;;;;-150.27;100.00;61272.81;5211367;28;20025;-71
2022/10/03 12:14:28;;;;;;;8.50;2.00;;;;;;;-150.27;100.00;61272.81;5212418;28;20029;-71
2022/10/03 12:17:11;;;;;;;9.88;2.58;;;;;;;-150.27;100.00;61272.81;5213750;28;20029;-72
2022/10/03 12:20:04;;;;;;;8.00;1.75;;;;;;;-150.27;100.00;61272.81;5211767;28;20030;-72
2022/10/03 12:22:52;;;;;;;8.77;2.08;;;;;;;-150.27;100.00;61272.81;5211002;28;20480;-72
2022/10/03 12:25:29;;;;;;;5.32;1.58;;;;;;;-150.27;100.00;61272.81;5210753;28;20021;-71
2022/10/03 12:28:25;;;;;;;9.57;2.00;;;;;;;-150.27;100.00;61272.81;5213635;28;20033;-72
2022/10/03 12:31:12;;;;;;;8.73;1.88;;;;;;;-150.27;100.00;61272.81;5212524;28;20060;-71
2022/10/03 12:34:30;;;;;;;11.52;2.00;;;;;;;-150.27;100.00;61272.81;5210648;28;20440;-72
2022/10/03 12:37:14;;;;;;;6.22;1.85;;;;;;;-150.27;100.00;61272.81;5211092;28;20034;-72
2022/10/03 12:39:52;;;;;;;9.48;2.53;;;;;;;-150.27;100.00;61272.81;5213057;28;20065;-72
2022/10/03 12:42:32;;;;;;;9.60;2.30;;;;;;;-150.27;100.00;61272.81;5212273;28;20496;-71
2022/10/03 12:45:20;;;;;;;9.15;1.75;;;;;;;-150.27;100.00;61272.81;5210826;28;20076;-73
2022/10/03 12:48:03;;;;;;;5.25;2.22;;;;;;;-150.27;100.00;61272.81;5209862;28;20041;-72
2022/10/03 12:50:38;;;;;;;13.65;2.55;;;;;;;-150.27;100.00;61272.81;5205882;28;20099;-72
2022/10/03 12:53:18;;;;;;;8.75;2.00;;;;;;;-150.27;100.00;61272.81;5210918;28;20061;-71
2022/10/03 12:56:01;;;;;;;9.13;3.03;;;;;;;-150.27;100.00;61272.81;5207409;28;20044;-71
2022/10/03 12:59:06;;;;;;;16.73;3.03;;;;;;;-150.27;100.00;61272.81;5202486;28;20044;-71
2022/10/03 13:01:52;;;;;;;4.95;2.10;;;;;;;-150.27;100.00;61272.81;5202889;28;20616;-72
2022/10/03 13:04:33;;;;;;;8.70;2.75;;;;;;;-150.27;100.00;61272.81;5205828;28;20104;-72
2022/10/03 13:07:26;;;;;;;7.57;2.08;;;;;;;-150.27;100.00;61272.81;5197571;28;20773;-71
2022/10/03 13:10:00;;;;;;;7.95;2.10;;;;;;;-150.27;100.00;61272.81;5202363;28;20362;-72